createdAt,value
2022-08-07T00:01:44.540Z,64.56
2022-08-07T00:02:56.927Z,63.63
2022-08-07T00:03:58.992Z,62.18
2022-08-07T00:05:00.714Z,61.34
2022-08-07T00:06:06.453Z,59.38
2022-08-07T00:07:09.393Z,57.58
2022-08-07T00:08:11.383Z,56.49
2022-08-07T00:09:21.311Z,56.08
2022-08-07T00:10:25.843Z,56.60
2022-08-07T00:11:32.956Z,57.11
2022-08-07T00:12:34.977Z,57.83
2022-08-07T00:13:57.314Z,59.07
2022-08-07T00:15:01.084Z,59.62
2022-08-07T00:16:05.259Z,59.91
2022-08-07T00:17:09.269Z,60.79
2022-08-07T00:18:19.889Z,61.43
2022-08-07T00:20:00.188Z,61.82
2022-08-07T00:20:51.417Z,62.64
2022-08-07T00:21:57.481Z,63.69
2022-08-07T00:23:08.063Z,64.32
2022-08-07T00:24:11.350Z,63.56
2022-08-07T00:25:17.263Z,62.83
2022-08-07T00:26:58.909Z,61.26
2022-08-07T00:27:53.404Z,59.38
2022-08-07T00:28:58.266Z,57.38
2022-08-07T00:29:59.930Z,56.47
2022-08-07T00:31:12.328Z,56.69
2022-08-07T00:32:14.950Z,57.41
2022-08-07T00:33:17.768Z,58.55
2022-08-07T00:34:19.608Z,59.35
2022-08-07T00:35:24.499Z,60.30
2022-08-07T00:36:26.300Z,60.82
2022-08-07T00:37:30.946Z,61.21
2022-08-07T00:38:50.403Z,62.04
2022-08-07T00:39:56.040Z,62.51
2022-08-07T00:40:58.421Z,63.91
2022-08-07T00:42:05.276Z,64.44
2022-08-07T00:43:09.653Z,64.49
2022-08-07T00:44:12.367Z,63.25
2022-08-07T00:45:17.007Z,61.99
2022-08-07T00:46:19.207Z,60.98
2022-08-07T00:48:09.378Z,60.10
2022-08-07T00:48:43.386Z,58.35
2022-08-07T00:50:19.653Z,56.85
2022-08-07T00:51:08.311Z,56.83
2022-08-07T00:52:10.374Z,57.33
2022-08-07T00:53:13.626Z,58.17
2022-08-07T00:54:19.841Z,59.06
2022-08-07T00:55:25.325Z,59.93
2022-08-07T00:56:44.677Z,61.01
2022-08-07T00:57:55.366Z,61.64
2022-08-07T00:58:59.066Z,62.21
2022-08-07T01:00:01.219Z,63.39
2022-08-07T01:01:04.940Z,64.77
2022-08-07T01:02:14.093Z,65.08
2022-08-07T01:03:57.201Z,63.82
2022-08-07T01:04:53.602Z,62.25
2022-08-07T01:06:01.327Z,61.03
2022-08-07T01:07:04.655Z,60.24
2022-08-07T01:08:06.567Z,59.63
2022-08-07T01:09:11.877Z,59.33
2022-08-07T01:10:33.767Z,57.76
2022-08-07T01:12:27.623Z,56.91
2022-08-07T01:12:59.790Z,57.64
2022-08-07T01:14:02.405Z,58.28
2022-08-07T01:15:06.511Z,59.04
2022-08-07T01:16:15.132Z,60.20
2022-08-07T01:17:34.584Z,61.03
2022-08-07T01:18:38.046Z,62.07
2022-08-07T01:19:42.025Z,62.89
2022-08-07T01:21:17.516Z,64.49
2022-08-07T01:22:29.437Z,64.38
2022-08-07T01:23:36.886Z,63.48
2022-08-07T01:24:44.150Z,62.08
2022-08-07T01:25:55.786Z,60.70
2022-08-07T01:27:00.010Z,59.44
2022-08-07T01:28:02.471Z,58.12
2022-08-07T01:29:04.806Z,57.25
2022-08-07T01:30:08.222Z,57.39
2022-08-07T01:31:15.420Z,58.21
2022-08-07T01:32:22.503Z,59.00
2022-08-07T01:33:30.198Z,59.90
2022-08-07T01:34:49.387Z,61.17
2022-08-07T01:35:53.783Z,62.01
2022-08-07T01:37:00.462Z,62.61
2022-08-07T01:38:04.217Z,64.16
2022-08-07T01:39:09.982Z,65.17
2022-08-07T01:40:19.496Z,65.23
2022-08-07T01:41:29.779Z,64.09
2022-08-07T01:42:38.251Z,63.01
2022-08-07T01:43:44.080Z,61.72
2022-08-07T01:44:48.064Z,61.01
2022-08-07T01:45:54.620Z,59.90
2022-08-07T01:46:58.490Z,59.13
2022-08-07T01:48:19.102Z,57.56
2022-08-07T01:49:24.033Z,57.43
2022-08-07T01:50:30.482Z,58.14
2022-08-07T01:52:03.418Z,59.15
2022-08-07T01:52:58.536Z,60.54
2022-08-07T01:54:12.784Z,61.00
2022-08-07T01:55:39.619Z,62.26
2022-08-07T01:56:49.711Z,63.53
2022-08-07T01:58:06.921Z,65.30
2022-08-07T01:59:30.865Z,64.83
2022-08-07T02:00:49.069Z,63.27
2022-08-07T02:02:02.433Z,62.03
2022-08-07T02:03:22.038Z,60.75
2022-08-07T02:04:56.334Z,59.75
2022-08-07T02:06:08.826Z,58.47
2022-08-07T02:07:50.039Z,57.32
2022-08-07T02:09:03.686Z,58.11
2022-08-07T02:10:09.135Z,59.18
2022-08-07T02:11:30.733Z,60.27
2022-08-07T02:12:42.506Z,61.66
2022-08-07T02:14:00.754Z,63.00
2022-08-07T02:15:08.227Z,64.49
2022-08-07T02:16:16.059Z,64.52
2022-08-07T02:17:27.555Z,63.79
2022-08-07T02:18:38.312Z,62.52
2022-08-07T02:20:04.739Z,61.26
2022-08-07T02:21:16.050Z,60.02
2022-08-07T02:22:20.728Z,58.99
2022-08-07T02:23:30.461Z,57.75
2022-08-07T02:24:39.347Z,57.49
2022-08-07T02:26:30.571Z,58.32
2022-08-07T02:27:14.142Z,59.74
2022-08-07T02:28:24.606Z,60.91
2022-08-07T02:29:30.675Z,61.91
2022-08-07T02:30:36.449Z,63.08
2022-08-07T02:31:39.905Z,64.55
2022-08-07T02:33:03.939Z,64.80
2022-08-07T02:34:11.479Z,63.60
2022-08-07T02:36:28.290Z,62.49
2022-08-07T02:36:50.373Z,60.97
2022-08-07T02:37:56.189Z,60.10
2022-08-07T02:39:01.557Z,59.46
2022-08-07T02:40:30.020Z,58.31
2022-08-07T02:41:36.982Z,57.60
2022-08-07T02:42:40.565Z,58.30
2022-08-07T02:43:48.921Z,59.16
2022-08-07T02:44:54.918Z,60.12
2022-08-07T02:46:04.426Z,61.08
2022-08-07T02:47:19.884Z,61.89
2022-08-07T02:48:26.968Z,63.49
2022-08-07T02:49:56.452Z,64.86
2022-08-07T02:50:56.366Z,64.80
2022-08-07T02:52:04.097Z,63.93
2022-08-07T02:53:12.083Z,62.96
2022-08-07T02:54:18.122Z,61.84
2022-08-07T02:55:27.736Z,60.63
2022-08-07T02:56:47.901Z,59.68
2022-08-07T02:57:52.368Z,58.57
2022-08-07T02:58:55.513Z,57.72
2022-08-07T03:00:01.258Z,58.01
2022-08-07T03:01:18.478Z,58.84
2022-08-07T03:02:21.615Z,60.13
2022-08-07T03:03:29.652Z,61.11
2022-08-07T03:04:54.944Z,62.28
2022-08-07T03:05:57.890Z,63.64
2022-08-07T03:07:07.360Z,65.08
2022-08-07T03:08:14.138Z,65.01
2022-08-07T03:09:43.200Z,64.30
2022-08-07T03:10:47.030Z,62.95
2022-08-07T03:11:57.913Z,61.70
2022-08-07T03:13:07.128Z,60.76
2022-08-07T03:14:11.570Z,60.01
2022-08-07T03:15:13.980Z,59.32
2022-08-07T03:16:36.749Z,57.93
2022-08-07T03:17:52.810Z,57.93
2022-08-07T03:18:57.473Z,58.87
2022-08-07T03:20:00.648Z,59.82
2022-08-07T03:21:08.491Z,60.71
2022-08-07T03:22:18.913Z,61.82
2022-08-07T03:23:21.893Z,62.68
2022-08-07T03:24:36.718Z,64.35
2022-08-07T03:25:41.999Z,64.93
2022-08-07T03:26:51.298Z,64.42
2022-08-07T03:28:09.536Z,63.35
2022-08-07T03:29:30.443Z,61.95
2022-08-07T03:30:33.703Z,61.02
2022-08-07T03:31:42.649Z,60.23
2022-08-07T03:32:58.519Z,59.61
2022-08-07T03:34:03.419Z,58.70
2022-08-07T03:35:17.472Z,57.71
2022-08-07T03:36:25.845Z,57.99
2022-08-07T03:37:32.528Z,58.77
2022-08-07T03:38:41.389Z,59.88
2022-08-07T03:39:59.128Z,61.25
2022-08-07T03:41:03.798Z,62.14
2022-08-07T03:42:07.484Z,64.04
2022-08-07T03:43:14.639Z,65.34
2022-08-07T03:44:21.769Z,65.22
2022-08-07T03:45:43.273Z,64.12
2022-08-07T03:47:11.004Z,62.90
2022-08-07T03:48:11.504Z,61.67
2022-08-07T03:49:13.782Z,60.94
2022-08-07T03:50:23.413Z,60.35
2022-08-07T03:51:31.039Z,59.69
2022-08-07T03:52:51.890Z,58.47
2022-08-07T03:54:33.856Z,57.85
2022-08-07T03:55:17.650Z,58.57
2022-08-07T03:56:32.773Z,59.57
2022-08-07T03:58:32.707Z,60.57
2022-08-07T03:59:09.576Z,62.17
2022-08-07T04:00:18.297Z,63.55
2022-08-07T04:01:26.997Z,65.04
2022-08-07T04:02:29.365Z,65.12
2022-08-07T04:03:38.867Z,64.29
2022-08-07T04:04:55.182Z,62.93
2022-08-07T04:06:00.461Z,61.96
2022-08-07T04:07:02.679Z,61.02
2022-08-07T04:08:21.343Z,60.11
2022-08-07T04:09:24.387Z,59.45
2022-08-07T04:10:31.142Z,58.37
2022-08-07T04:12:27.639Z,57.81
2022-08-07T04:12:57.470Z,58.50
2022-08-07T04:14:10.970Z,59.45
2022-08-07T04:15:24.203Z,60.86
2022-08-07T04:16:30.870Z,61.80
2022-08-07T04:18:56.632Z,62.83
2022-08-07T04:19:01.623Z,64.62
2022-08-07T04:20:11.223Z,64.56
2022-08-07T04:21:13.222Z,63.70
2022-08-07T04:22:18.926Z,62.64
2022-08-07T04:23:21.664Z,61.52
2022-08-07T04:24:30.508Z,60.56
2022-08-07T04:25:39.383Z,59.71
2022-08-07T04:26:43.619Z,58.70
2022-08-07T04:27:59.491Z,57.82
2022-08-07T04:29:04.339Z,58.12
2022-08-07T04:30:11.829Z,59.04
2022-08-07T04:31:39.043Z,60.39
2022-08-07T04:32:58.210Z,61.71
2022-08-07T04:34:01.823Z,62.78
2022-08-07T04:35:06.431Z,64.13
2022-08-07T04:36:14.821Z,64.34
2022-08-07T04:37:30.617Z,63.48
2022-08-07T04:38:40.627Z,61.95
2022-08-07T04:39:47.856Z,60.83
2022-08-07T04:40:56.569Z,59.82
2022-08-07T04:42:04.013Z,58.43
2022-08-07T04:43:06.606Z,57.49
2022-08-07T04:44:18.473Z,57.63
2022-08-07T04:45:57.406Z,58.40
2022-08-07T04:47:56.676Z,59.66
2022-08-07T04:49:17.768Z,61.12
2022-08-07T04:50:32.431Z,62.25
2022-08-07T04:52:10.398Z,62.91
2022-08-07T04:53:40.126Z,63.94
2022-08-07T04:54:50.677Z,62.99
2022-08-07T04:58:15.191Z,59.86
2022-08-07T04:58:15.884Z,61.68
2022-08-07T05:00:09.666Z,57.72
2022-08-07T05:01:02.711Z,57.35
2022-08-07T05:02:16.670Z,58.11
2022-08-07T05:04:07.737Z,59.08
2022-08-07T05:05:52.077Z,60.30
2022-08-07T05:07:19.839Z,60.99
2022-08-07T05:08:59.782Z,61.84
2022-08-07T05:09:55.194Z,62.78
2022-08-07T05:11:07.212Z,63.71
2022-08-07T05:12:27.255Z,63.33
2022-08-07T05:14:56.174Z,61.88
2022-08-07T05:15:23.182Z,60.12
2022-08-07T05:16:33.185Z,58.17
2022-08-07T05:17:52.577Z,56.94
2022-08-07T05:19:08.777Z,56.97
2022-08-07T05:20:16.139Z,57.79
2022-08-07T05:21:59.228Z,58.72
2022-08-07T05:22:52.942Z,59.70
2022-08-07T05:23:59.826Z,59.81
2022-08-07T05:25:02.698Z,60.39
2022-08-07T05:26:23.638Z,61.04
2022-08-07T05:28:15.862Z,61.48
2022-08-07T05:28:57.737Z,61.79
2022-08-07T05:30:03.674Z,61.97
2022-08-07T05:31:08.435Z,62.76
2022-08-07T05:32:12.861Z,63.80
2022-08-07T05:33:17.987Z,63.82
2022-08-07T05:34:26.378Z,62.81
2022-08-07T05:35:41.952Z,61.34
2022-08-07T05:36:48.979Z,59.51
2022-08-07T05:38:08.678Z,57.70
2022-08-07T05:40:06.792Z,57.23
2022-08-07T05:40:41.874Z,57.74
2022-08-07T05:42:00.750Z,59.00
2022-08-07T05:43:05.757Z,60.03
2022-08-07T05:44:13.966Z,60.82
2022-08-07T05:45:28.085Z,61.41
2022-08-07T05:46:44.548Z,62.14
2022-08-07T05:48:01.843Z,63.09
2022-08-07T05:49:14.413Z,64.19
2022-08-07T05:50:18.636Z,63.46
2022-08-07T05:51:22.522Z,62.53
2022-08-07T05:52:30.054Z,61.14
2022-08-07T05:54:12.272Z,59.89
2022-08-07T05:54:58.772Z,57.75
2022-08-07T05:56:10.038Z,56.51
2022-08-07T05:57:17.889Z,56.59
2022-08-07T05:58:36.146Z,57.06
2022-08-07T05:59:57.179Z,58.16
2022-08-07T06:01:04.974Z,59.05
2022-08-07T06:02:13.841Z,59.91
2022-08-07T06:03:23.697Z,60.48
2022-08-07T06:04:30.200Z,61.37
2022-08-07T06:05:34.510Z,62.33
2022-08-07T06:06:46.088Z,63.09
2022-08-07T06:08:29.165Z,64.03
2022-08-07T06:09:14.794Z,63.57
2022-08-07T06:10:19.635Z,61.69
2022-08-07T06:11:22.833Z,60.21
2022-08-07T06:12:31.882Z,59.36
2022-08-07T06:14:11.850Z,57.41
2022-08-07T06:15:05.543Z,56.56
2022-08-07T06:16:10.159Z,57.16
2022-08-07T06:17:15.534Z,57.94
2022-08-07T06:18:21.572Z,58.41
2022-08-07T06:19:49.890Z,58.93
2022-08-07T06:20:51.051Z,59.56
2022-08-07T06:22:14.543Z,60.01
2022-08-07T06:24:38.095Z,60.55
2022-08-07T06:24:57.016Z,60.80
2022-08-07T06:26:01.484Z,61.08
2022-08-07T06:27:04.730Z,61.25
2022-08-07T06:28:09.630Z,61.34
2022-08-07T06:29:15.842Z,61.73
2022-08-07T06:30:32.196Z,62.11
2022-08-07T06:31:49.790Z,62.31
2022-08-07T06:32:53.019Z,62.99
2022-08-07T06:33:55.623Z,62.56
2022-08-07T06:35:00.620Z,61.81
2022-08-07T06:36:06.774Z,60.57
2022-08-07T06:37:43.478Z,58.47
2022-08-07T06:38:59.515Z,56.00
2022-08-07T06:40:16.130Z,55.01
2022-08-07T06:42:01.819Z,54.74
2022-08-07T06:42:53.602Z,55.51
2022-08-07T06:44:25.853Z,56.54
2022-08-07T06:45:35.796Z,56.86
2022-08-07T06:46:40.655Z,57.40
2022-08-07T06:47:47.983Z,57.01
2022-08-07T06:48:59.053Z,56.74
2022-08-07T06:50:01.715Z,56.75
2022-08-07T06:51:15.392Z,56.80
2022-08-07T06:52:35.255Z,56.42
2022-08-07T06:55:28.485Z,56.34
2022-08-07T06:55:31.896Z,56.57
2022-08-07T06:56:48.500Z,56.38
2022-08-07T06:58:06.248Z,56.62
2022-08-07T07:00:12.199Z,56.61
2022-08-07T07:00:46.332Z,57.37
2022-08-07T07:01:51.075Z,57.79
2022-08-07T07:03:00.606Z,57.96
2022-08-07T07:04:32.435Z,57.63
2022-08-07T07:06:03.845Z,57.43
2022-08-07T07:07:00.158Z,57.44
2022-08-07T07:08:06.656Z,57.12
2022-08-07T07:09:25.580Z,57.42
2022-08-07T07:10:35.107Z,58.01
2022-08-07T07:12:07.792Z,58.36
2022-08-07T07:13:13.223Z,58.42
2022-08-07T07:14:18.519Z,58.87
2022-08-07T07:15:35.733Z,58.89
2022-08-07T07:16:49.495Z,59.01
2022-08-07T07:18:05.548Z,59.29
2022-08-07T07:19:56.870Z,59.17
2022-08-07T07:20:50.252Z,59.49
2022-08-07T07:22:04.760Z,59.85
2022-08-07T07:24:09.133Z,59.33
2022-08-07T07:24:39.170Z,58.92
2022-08-07T07:26:32.840Z,58.97
2022-08-07T07:27:16.111Z,59.76
2022-08-07T07:28:42.131Z,59.86
2022-08-07T07:30:07.559Z,59.47
2022-08-07T07:31:21.440Z,59.05
2022-08-07T07:32:25.747Z,59.39
2022-08-07T07:33:30.605Z,59.28
2022-08-07T07:34:36.545Z,59.19
2022-08-07T07:36:04.965Z,59.14
2022-08-07T07:37:21.635Z,58.94
2022-08-07T07:38:32.882Z,58.74
2022-08-07T07:39:52.015Z,58.98
2022-08-07T07:41:02.733Z,59.24
2022-08-07T07:42:13.486Z,59.26
2022-08-07T07:43:18.752Z,59.75
2022-08-07T07:44:33.552Z,59.88
2022-08-07T07:46:36.587Z,59.56
2022-08-07T07:47:15.922Z,59.24
2022-08-07T07:48:35.223Z,58.61
2022-08-07T07:50:32.646Z,57.95
2022-08-07T07:51:07.839Z,56.77
2022-08-07T07:52:13.174Z,56.60
2022-08-07T07:53:23.078Z,56.08
2022-08-07T07:54:30.690Z,55.78
2022-08-07T07:55:37.630Z,56.08
2022-08-07T07:56:49.492Z,56.23
2022-08-07T07:57:58.253Z,56.94
2022-08-07T07:59:03.265Z,57.69
2022-08-07T08:00:09.447Z,57.51
2022-08-07T08:02:01.812Z,57.43
2022-08-07T08:03:05.091Z,57.21
2022-08-07T08:04:11.551Z,57.43
2022-08-07T08:05:18.067Z,57.15
2022-08-07T08:06:26.721Z,56.07
2022-08-07T08:07:35.700Z,55.60
2022-08-07T08:08:46.176Z,55.37
2022-08-07T08:10:04.979Z,55.18
2022-08-07T08:11:16.489Z,54.82
2022-08-07T08:12:51.520Z,54.59
2022-08-07T08:13:55.850Z,55.08
2022-08-07T08:14:57.883Z,54.84
2022-08-07T08:16:02.732Z,54.51
2022-08-07T08:17:55.554Z,54.40
2022-08-07T08:18:31.214Z,52.43
2022-08-07T08:20:19.429Z,52.26
2022-08-07T08:21:02.948Z,52.09
2022-08-07T08:22:32.633Z,51.86
2022-08-07T08:23:55.144Z,52.39
2022-08-07T08:25:26.283Z,52.34
2022-08-07T08:27:00.249Z,52.30
2022-08-07T08:28:04.541Z,52.11
2022-08-07T08:29:08.411Z,52.22
2022-08-07T08:30:14.249Z,52.32
2022-08-07T08:31:59.050Z,53.40
2022-08-07T08:32:56.036Z,53.53
2022-08-07T08:34:01.508Z,52.24
2022-08-07T08:35:08.619Z,52.12
2022-08-07T08:36:13.440Z,52.35
2022-08-07T08:38:00.650Z,51.92
2022-08-07T08:38:48.251Z,51.66
2022-08-07T08:39:55.139Z,51.75
2022-08-07T08:41:22.978Z,51.00
2022-08-07T08:42:43.446Z,49.91
2022-08-07T08:43:59.542Z,50.90
2022-08-07T08:45:05.622Z,51.71
2022-08-07T08:46:21.971Z,50.83
2022-08-07T08:47:34.378Z,50.88
2022-08-07T08:49:16.554Z,50.39
2022-08-07T08:50:39.628Z,50.18
2022-08-07T08:52:14.041Z,50.36
2022-08-07T08:53:45.883Z,50.79
2022-08-07T08:55:01.059Z,50.94
2022-08-07T08:56:12.154Z,51.02
2022-08-07T08:57:30.272Z,50.55
2022-08-07T08:58:43.600Z,50.89
2022-08-07T08:59:50.198Z,51.37
2022-08-07T09:01:01.046Z,50.54
2022-08-07T09:02:49.348Z,50.41
2022-08-07T09:04:30.199Z,50.16
2022-08-07T09:05:50.573Z,49.43
2022-08-07T09:07:14.401Z,48.56
2022-08-07T09:08:29.035Z,47.75
2022-08-07T09:10:00.006Z,47.13
2022-08-07T09:11:24.703Z,47.56
2022-08-07T09:13:18.244Z,48.47
2022-08-07T09:14:34.032Z,48.33
2022-08-07T09:16:20.523Z,47.61
2022-08-07T09:17:59.249Z,47.72
2022-08-07T09:18:58.554Z,46.96
2022-08-07T09:20:37.148Z,47.25
2022-08-07T09:22:09.725Z,47.58
2022-08-07T09:24:32.049Z,47.81
2022-08-07T09:25:14.561Z,48.57
2022-08-07T09:26:31.543Z,48.99
2022-08-07T09:28:00.459Z,49.66
2022-08-07T09:30:05.999Z,49.90
2022-08-07T09:30:52.906Z,48.72
2022-08-07T09:32:33.660Z,48.95
2022-08-07T09:34:18.097Z,48.90
2022-08-07T09:36:01.077Z,48.21
2022-08-07T09:37:21.170Z,46.35
2022-08-07T09:38:54.754Z,46.23
2022-08-07T09:40:08.890Z,47.44
2022-08-07T09:41:58.886Z,47.90
2022-08-07T09:44:06.585Z,48.11
2022-08-07T09:47:23.589Z,48.04
2022-08-07T09:47:42.523Z,47.95
2022-08-07T09:50:03.979Z,47.53
2022-08-07T09:50:39.991Z,48.33
2022-08-07T09:52:33.634Z,47.90
2022-08-07T09:53:47.961Z,46.59
2022-08-07T09:55:17.247Z,46.94
2022-08-07T09:56:46.739Z,48.29
2022-08-07T09:58:38.737Z,48.08
2022-08-07T10:00:05.607Z,46.11
2022-08-07T10:01:53.421Z,46.28
2022-08-07T10:04:05.725Z,46.40
2022-08-07T10:05:16.160Z,45.69
2022-08-07T10:06:49.100Z,45.97
2022-08-07T10:08:28.369Z,46.26
2022-08-07T10:10:00.608Z,46.39
2022-08-07T10:11:59.753Z,46.40
2022-08-07T10:13:54.938Z,47.35
2022-08-07T10:15:15.353Z,47.49
2022-08-07T10:16:34.305Z,47.53
2022-08-07T10:18:03.438Z,46.27
2022-08-07T10:19:11.259Z,46.99
2022-08-07T10:20:39.703Z,47.83
2022-08-07T10:22:33.269Z,48.78
2022-08-07T10:24:10.023Z,47.65
2022-08-07T10:25:44.176Z,47.21
2022-08-07T10:26:53.340Z,47.73
2022-08-07T10:28:23.502Z,48.49
2022-08-07T10:29:39.363Z,47.59
2022-08-07T10:31:10.974Z,47.19
2022-08-07T10:32:52.252Z,46.53
2022-08-07T10:34:15.111Z,47.47
2022-08-07T10:35:55.262Z,48.13
2022-08-07T10:38:00.106Z,48.44
2022-08-07T10:39:05.450Z,48.30
2022-08-07T10:40:21.760Z,47.37
2022-08-07T10:41:46.357Z,46.87
2022-08-07T10:42:58.245Z,45.93
2022-08-07T10:44:39.168Z,46.28
2022-08-07T10:45:58.058Z,45.97
2022-08-07T10:47:11.957Z,46.54
2022-08-07T10:48:24.489Z,46.24
2022-08-07T10:49:51.240Z,46.23
2022-08-07T10:51:06.376Z,46.18
2022-08-07T10:52:31.713Z,46.02
2022-08-07T10:53:47.472Z,44.43
2022-08-07T10:55:27.001Z,44.72
2022-08-07T10:56:58.650Z,45.33
2022-08-07T10:58:15.812Z,43.85
2022-08-07T10:59:57.885Z,43.90
2022-08-07T11:01:35.507Z,44.20
2022-08-07T11:03:17.065Z,44.37
2022-08-07T11:04:32.043Z,43.98
2022-08-07T11:06:02.735Z,44.95
2022-08-07T11:07:56.175Z,45.28
2022-08-07T11:08:54.705Z,45.39
2022-08-07T11:10:08.831Z,44.73
2022-08-07T11:11:25.754Z,45.26
2022-08-07T11:12:43.168Z,44.92
2022-08-07T11:14:56.623Z,44.41
2022-08-07T11:15:54.391Z,43.37
2022-08-07T11:17:02.136Z,44.08
2022-08-07T11:18:25.079Z,44.30
2022-08-07T11:19:45.652Z,44.31
2022-08-07T11:21:20.237Z,44.20
2022-08-07T11:22:37.114Z,44.39
2022-08-07T11:24:20.018Z,44.50
2022-08-07T11:25:50.056Z,44.64
2022-08-07T11:27:20.643Z,44.97
2022-08-07T11:28:55.180Z,44.74
2022-08-07T11:30:18.636Z,46.42
2022-08-07T11:31:27.001Z,45.71
2022-08-07T11:32:40.610Z,45.31
2022-08-07T11:33:59.393Z,45.40
2022-08-07T11:35:16.679Z,44.45
2022-08-07T11:36:35.875Z,44.73
2022-08-07T11:37:58.146Z,45.20
2022-08-07T11:39:58.889Z,44.44
2022-08-07T11:41:18.270Z,42.83
2022-08-07T11:42:37.536Z,42.49
2022-08-07T11:44:12.614Z,42.58
2022-08-07T11:45:55.296Z,42.69
2022-08-07T11:47:04.453Z,42.94
2022-08-07T11:48:44.171Z,43.71
2022-08-07T11:50:30.380Z,42.30
2022-08-07T11:51:41.501Z,42.64
2022-08-07T11:53:08.919Z,44.77
2022-08-07T11:54:31.482Z,45.22
2022-08-07T11:56:15.765Z,45.75
2022-08-07T11:58:00.640Z,45.37
2022-08-07T12:00:07.623Z,45.94
2022-08-07T12:01:01.855Z,44.57
2022-08-07T12:02:52.573Z,44.01
2022-08-07T12:04:34.133Z,43.90
2022-08-07T12:05:49.489Z,44.09
2022-08-07T12:07:08.048Z,44.27
2022-08-07T12:08:25.968Z,44.78
2022-08-07T12:09:46.140Z,45.35
2022-08-07T12:11:20.402Z,45.55
2022-08-07T12:12:34.687Z,45.77
2022-08-07T12:13:53.760Z,46.35
2022-08-07T12:15:08.213Z,45.93
2022-08-07T12:16:31.641Z,44.73
2022-08-07T12:17:59.422Z,44.67
2022-08-07T12:19:22.017Z,44.38
2022-08-07T12:20:30.707Z,46.36
2022-08-07T12:22:39.575Z,44.72
2022-08-07T12:24:06.305Z,44.47
2022-08-07T12:26:21.875Z,42.82
2022-08-07T12:27:18.541Z,43.49
2022-08-07T12:29:00.735Z,42.01
2022-08-07T12:30:08.914Z,42.18
2022-08-07T12:31:52.492Z,40.59
2022-08-07T12:33:18.763Z,39.77
2022-08-07T12:34:31.783Z,40.31
2022-08-07T12:35:36.565Z,40.14
2022-08-07T12:36:42.294Z,40.03
2022-08-07T12:38:09.313Z,39.89
2022-08-07T12:39:43.981Z,39.34
2022-08-07T12:40:47.072Z,40.20
2022-08-07T12:41:53.574Z,40.09
2022-08-07T12:43:01.765Z,39.64
2022-08-07T12:44:12.906Z,38.83
2022-08-07T12:45:27.299Z,38.60
2022-08-07T12:46:48.817Z,38.15
2022-08-07T12:48:28.510Z,37.46
2022-08-07T12:50:33.971Z,38.12
2022-08-07T12:51:51.397Z,37.56
2022-08-07T12:53:22.406Z,38.61
2022-08-07T12:54:38.097Z,38.60
2022-08-07T12:56:03.010Z,38.84
2022-08-07T12:57:10.290Z,36.38
2022-08-07T12:58:16.388Z,36.72
2022-08-07T12:59:33.005Z,36.43
2022-08-07T13:00:50.139Z,37.24
2022-08-07T13:02:01.314Z,36.85
2022-08-07T13:03:56.279Z,35.77
2022-08-07T13:06:03.240Z,36.33
2022-08-07T13:08:14.096Z,36.55
2022-08-07T13:10:20.115Z,36.57
2022-08-07T13:10:59.960Z,34.11
2022-08-07T13:12:29.087Z,34.35
2022-08-07T13:13:53.790Z,34.40
2022-08-07T13:15:34.482Z,34.64
2022-08-07T13:17:09.412Z,33.48
2022-08-07T13:18:28.332Z,33.68
2022-08-07T13:19:35.145Z,33.69
2022-08-07T13:21:00.969Z,34.61
2022-08-07T13:22:19.791Z,34.02
2022-08-07T13:24:01.752Z,34.36
2022-08-07T13:25:15.222Z,35.04
2022-08-07T13:26:35.058Z,34.57
2022-08-07T13:28:11.458Z,34.88
2022-08-07T13:29:42.382Z,34.58
2022-08-07T13:31:02.147Z,34.92
2022-08-07T13:32:32.493Z,35.68
2022-08-07T13:34:30.139Z,35.93
2022-08-07T13:35:59.818Z,37.81
2022-08-07T13:37:21.711Z,37.86
2022-08-07T13:38:34.811Z,37.65
2022-08-07T13:40:33.353Z,36.34
2022-08-07T13:41:48.374Z,34.54
2022-08-07T13:42:54.224Z,34.18
2022-08-07T13:44:02.415Z,34.21
2022-08-07T13:46:06.434Z,34.71
2022-08-07T13:46:41.829Z,34.00
2022-08-07T13:48:08.106Z,34.42
2022-08-07T13:50:33.870Z,34.45
2022-08-07T13:50:45.267Z,34.49
2022-08-07T13:52:31.614Z,33.94
2022-08-07T13:53:59.620Z,33.14
2022-08-07T13:55:06.480Z,33.71
2022-08-07T13:56:09.869Z,33.79
2022-08-07T13:57:24.094Z,34.59
2022-08-07T13:59:12.142Z,33.97
2022-08-07T14:00:26.892Z,33.27
2022-08-07T14:01:33.512Z,32.40
2022-08-07T14:02:58.647Z,32.81
2022-08-07T14:04:16.758Z,33.28
2022-08-07T14:05:28.987Z,32.95
2022-08-07T14:06:43.545Z,33.40
2022-08-07T14:08:01.022Z,32.77
2022-08-07T14:09:09.823Z,31.31
2022-08-07T14:10:24.709Z,31.67
2022-08-07T14:11:53.717Z,31.57
2022-08-07T14:13:03.725Z,31.61
2022-08-07T14:14:15.550Z,31.88
2022-08-07T14:15:35.944Z,31.36
2022-08-07T14:16:49.816Z,31.25
2022-08-07T14:18:27.964Z,31.25
2022-08-07T14:20:43.428Z,31.50
2022-08-07T14:22:36.023Z,31.69
2022-08-07T14:22:41.098Z,30.97
2022-08-07T14:24:01.107Z,30.95
2022-08-07T14:25:17.121Z,31.50
2022-08-07T14:26:31.800Z,31.58
2022-08-07T14:28:12.251Z,32.14
2022-08-07T14:30:06.728Z,32.81
2022-08-07T14:30:32.970Z,33.22
2022-08-07T14:31:42.900Z,32.79
2022-08-07T14:32:58.051Z,32.21
2022-08-07T14:34:01.635Z,33.16
2022-08-07T14:35:43.038Z,33.75
2022-08-07T14:36:42.199Z,34.66
2022-08-07T14:38:03.243Z,33.55
2022-08-07T14:39:12.497Z,34.28
2022-08-07T14:40:35.354Z,33.29
2022-08-07T14:42:18.439Z,33.69
2022-08-07T14:43:58.663Z,33.21
2022-08-07T14:44:38.976Z,31.96
2022-08-07T14:45:49.493Z,32.47
2022-08-07T14:47:14.156Z,32.00
2022-08-07T14:48:20.732Z,31.57
2022-08-07T14:50:55.808Z,31.28
2022-08-07T14:54:03.735Z,31.13
2022-08-07T14:54:54.063Z,30.77
2022-08-07T14:56:00.931Z,30.62
2022-08-07T14:57:09.714Z,31.24
2022-08-07T14:58:24.154Z,30.70
2022-08-07T15:00:04.770Z,30.69
2022-08-07T15:00:52.636Z,29.84
2022-08-07T15:01:58.722Z,28.99
2022-08-07T15:03:16.394Z,29.37
2022-08-07T15:04:25.229Z,28.56
2022-08-07T15:05:30.356Z,29.36
2022-08-07T15:06:35.466Z,29.50
2022-08-07T15:07:47.642Z,29.25
2022-08-07T15:10:19.749Z,29.36
2022-08-07T15:11:53.380Z,28.97
2022-08-07T15:13:00.989Z,29.72
2022-08-07T15:15:52.422Z,30.15
2022-08-07T15:17:01.225Z,30.45
2022-08-07T15:18:14.128Z,30.29
2022-08-07T15:20:23.561Z,30.00
2022-08-07T15:21:03.737Z,30.08
2022-08-07T15:22:23.175Z,29.60
2022-08-07T15:25:14.601Z,29.27
2022-08-07T15:25:17.833Z,28.99
2022-08-07T15:26:31.884Z,28.25
2022-08-07T15:28:18.788Z,28.46
2022-08-07T15:30:04.435Z,27.24
2022-08-07T15:30:31.591Z,26.82
2022-08-07T15:32:02.104Z,26.89
2022-08-07T15:33:04.090Z,27.12
2022-08-07T15:34:14.928Z,27.15
2022-08-07T15:36:01.209Z,26.95
2022-08-07T15:37:04.580Z,27.12
2022-08-07T15:38:17.963Z,26.88
2022-08-07T15:39:56.307Z,27.44
2022-08-07T15:42:43.628Z,26.69
2022-08-07T15:44:04.793Z,27.01
2022-08-07T15:45:14.117Z,26.42
2022-08-07T15:46:32.490Z,26.26
2022-08-07T15:48:01.050Z,27.43
2022-08-07T15:49:14.291Z,27.90
2022-08-07T15:50:37.786Z,27.33
2022-08-07T15:53:11.171Z,27.81
2022-08-07T15:54:15.814Z,27.93
2022-08-07T15:55:20.809Z,27.39
2022-08-07T15:56:34.191Z,27.40
2022-08-07T15:57:47.802Z,26.97
2022-08-07T15:58:59.206Z,27.68
2022-08-07T16:00:06.685Z,27.13
2022-08-07T16:01:24.006Z,27.41
2022-08-07T16:02:46.622Z,27.81
2022-08-07T16:03:57.364Z,28.55
2022-08-07T16:05:04.251Z,28.33
2022-08-07T16:06:30.194Z,27.82
2022-08-07T16:08:31.590Z,28.45
2022-08-07T16:09:14.132Z,29.43
2022-08-07T16:10:29.786Z,29.76
2022-08-07T16:12:03.617Z,29.77
2022-08-07T16:13:57.556Z,30.13
2022-08-07T16:15:55.705Z,30.14
2022-08-07T16:16:56.773Z,30.70
2022-08-07T16:18:02.732Z,30.47
2022-08-07T16:19:20.675Z,30.82
2022-08-07T16:22:02.254Z,30.57
2022-08-07T16:22:34.080Z,31.20
2022-08-07T16:24:02.767Z,30.44
2022-08-07T16:25:54.559Z,30.32
2022-08-07T16:27:04.476Z,31.18
2022-08-07T16:30:08.332Z,31.32
2022-08-07T16:30:29.763Z,31.52
2022-08-07T16:31:50.690Z,31.71
2022-08-07T16:34:02.073Z,32.64
2022-08-07T16:34:50.920Z,32.91
2022-08-07T16:36:31.163Z,33.58
2022-08-07T16:38:03.571Z,34.22
2022-08-07T16:39:33.735Z,34.47
2022-08-07T16:41:13.342Z,34.82
2022-08-07T16:42:38.786Z,36.00
2022-08-07T16:44:05.707Z,36.37
2022-08-07T16:46:47.224Z,36.22
2022-08-07T16:47:38.656Z,36.77
2022-08-07T16:50:28.614Z,37.47
2022-08-07T16:50:52.660Z,36.97
2022-08-07T16:52:51.301Z,37.10